Time;durP1;ratioP1;P1;durP2;ratioP2;P2;SDS_P1;SDS_P2;PMS_P1;PMS_P2;Temp;Humidity;BMP_temperature;BMP_pressure;BME280_temperature;BME280_humidity;BME280_pressure;Samples;Min_cycle;Max_cycle;Signal;HPM_P1;HPM_P2
2023/03/11 00:00:12;;;;;;;8.00;2.28;;;;;;;0.16;98.09;100696.28;5115422;28;20066;-61
2023/03/11 00:02:38;;;;;;;7.85;2.65;;;;;;;0.13;99.21;100692.06;5115208;28;20027;-61
2023/03/11 00:05:03;;;;;;;10.20;2.38;;;;;;;0.12;98.60;100692.09;5116244;27;20446;-62
2023/03/11 00:07:29;;;;;;;7.95;2.08;;;;;;;0.11;98.33;100695.59;5118097;27;20026;-61
2023/03/11 00:09:54;;;;;;;7.72;2.47;;;;;;;0.08;98.24;100690.50;5114935;28;20024;-62
2023/03/11 00:12:19;;;;;;;4.60;2.00;;;;;;;0.06;98.94;100689.69;5116003;27;20371;-62
2023/03/11 00:14:45;;;;;;;9.93;2.22;;;;;;;0.02;97.92;100690.69;5116751;27;20054;-61
2023/03/11 00:17:10;;;;;;;10.43;2.70;;;;;;;-0.01;97.67;100696.91;5113831;27;20039;-61
2023/03/11 00:19:35;;;;;;;5.85;2.25;;;;;;;-0.07;98.24;100697.09;5115120;27;20024;-61
2023/03/11 00:22:01;;;;;;;6.85;2.45;;;;;;;-0.11;97.82;100700.75;5115968;27;20024;-62
2023/03/11 00:24:27;;;;;;;6.97;2.60;;;;;;;-0.15;97.64;100707.84;5115974;27;20028;-60
2023/03/11 00:26:52;;;;;;;7.03;2.58;;;;;;;-0.20;98.18;100713.19;5114784;28;20541;-62
2023/03/11 00:29:17;;;;;;;11.60;2.78;;;;;;;-0.25;98.51;100715.13;5115540;27;20023;-62
2023/03/11 00:31:43;;;;;;;6.38;2.70;;;;;;;-0.27;98.62;100716.06;5114818;28;20668;-61
2023/03/11 00:34:08;;;;;;;8.18;2.75;;;;;;;-0.31;98.81;100719.69;5114407;28;20382;-61
2023/03/11 00:36:33;;;;;;;8.50;3.40;;;;;;;-0.36;98.62;100722.44;5115351;27;20023;-62
2023/03/11 00:39:01;;;;;;;6.78;3.10;;;;;;;-0.41;98.46;100730.41;5116013;27;20028;-61
2023/03/11 00:41:27;;;;;;;12.82;3.78;;;;;;;-0.45;99.00;100731.44;5114073;28;20039;-62
2023/03/11 00:43:53;;;;;;;9.55;3.25;;;;;;;-0.46;99.78;100734.09;5111995;28;20020;-61
2023/03/11 00:46:18;;;;;;;11.88;2.92;;;;;;;-0.50;99.50;100735.09;5114640;27;20073;-62
2023/03/11 00:48:44;;;;;;;10.00;2.80;;;;;;;-0.53;99.78;100735.19;5114841;27;20019;-61
2023/03/11 00:51:13;;;;;;;7.95;2.88;;;;;;;-0.55;99.79;100730.00;5111803;27;20027;-61
2023/03/11 00:53:38;;;;;;;13.55;2.85;;;;;;;-0.57;100.00;100731.81;5107135;27;20020;-62
2023/03/11 00:56:11;;;;;;;9.63;3.05;;;;;;;-0.58;100.00;100737.97;5115884;27;20510;-62
2023/03/11 00:58:38;;;;;;;5.13;2.92;;;;;;;-0.60;100.00;100739.75;5114322;28;20458;-62
2023/03/11 01:01:12;;;;;;;6.03;2.80;;;;;;;-0.62;99.99;100745.00;5113643;28;20487;-62
2023/03/11 01:03:39;;;;;;;7.03;2.65;;;;;;;-0.65;100.00;100750.34;5113217;28;20546;-62
2023/03/11 01:06:06;;;;;;;8.73;2.80;;;;;;;-0.67;100.00;100759.09;5113324;27;20030;-62
2023/03/11 01:08:32;;;;;;;6.95;2.38;;;;;;;-0.68;99.71;100763.47;5114449;28;20543;-61
2023/03/11 01:10:58;;;;;;;10.15;2.65;;;;;;;-0.72;99.84;100761.84;5113426;28;20028;-61
2023/03/11 01:13:25;;;;;;;6.35;2.63;;;;;;;-0.75;99.93;100761.94;5113431;28;20085;-61
2023/03/11 01:15:50;;;;;;;10.60;3.10;;;;;;;-0.76;100.00;100768.06;5102460;27;20481;-61
2023/03/11 01:18:16;;;;;;;6.47;2.92;;;;;;;-0.75;100.00;100769.75;5112694;27;20027;-62
2023/03/11 01:20:42;;;;;;;11.30;3.50;;;;;;;-0.75;100.00;100772.38;5095239;28;20027;-61
2023/03/11 01:23:08;;;;;;;7.05;2.97;;;;;;;-0.77;100.00;100775.06;5114442;27;20035;-61
2023/03/11 01:25:34;;;;;;;12.85;3.30;;;;;;;-0.79;100.00;100771.63;5113168;28;20110;-62
2023/03/11 01:28:00;;;;;;;5.30;2.72;;;;;;;-0.79;100.00;100771.63;5113180;28;20031;-62
2023/03/11 01:30:27;;;;;;;7.18;2.72;;;;;;;-0.78;100.00;100777.72;5113549;27;20026;-61
2023/03/11 01:32:54;;;;;;;13.10;2.97;;;;;;;-0.78;100.00;100772.50;5112522;27;20035;-62
2023/03/11 01:35:21;;;;;;;11.85;3.00;;;;;;;-0.80;100.00;100774.28;5113582;27;20015;-61
2023/03/11 01:37:47;;;;;;;8.00;3.03;;;;;;;-0.81;100.00;100770.81;5113728;27;20375;-60
2023/03/11 01:40:32;;;;;;;12.80;2.80;;;;;;;-0.78;100.00;100778.56;5112661;28;20027;-62
2023/03/11 01:42:59;;;;;;;6.53;3.05;;;;;;;-0.82;100.00;100776.91;5108370;28;20050;-62
2023/03/11 01:45:27;;;;;;;6.57;2.65;;;;;;;-0.82;100.00;100783.91;5112941;28;20091;-61
2023/03/11 01:47:52;;;;;;;9.57;2.65;;;;;;;-0.84;100.00;100780.50;5117207;27;20034;-60
2023/03/11 01:50:18;;;;;;;12.38;2.40;;;;;;;-0.85;100.00;100781.38;5116074;27;20028;-61
2023/03/11 01:52:43;;;;;;;11.07;2.88;;;;;;;-0.85;100.00;100776.16;5117633;27;20359;-61
2023/03/11 01:55:11;;;;;;;7.22;2.85;;;;;;;-0.87;100.00;100778.81;5115420;27;20015;-60
2023/03/11 01:57:40;;;;;;;4.68;2.22;;;;;;;-0.88;100.00;100776.25;5113809;27;20114;-61
2023/03/11 02:00:08;;;;;;;;;;;;;;;-0.82;100.00;100786.50;5104450;28;20110;-61
2023/03/11 02:02:39;;;;;;;9.88;2.90;;;;;;;-0.90;100.00;100780.66;5112345;28;19926;-61
2023/03/11 02:05:04;;;;;;;11.35;3.10;;;;;;;-0.93;100.00;100781.63;5113040;28;20394;-61
2023/03/11 02:07:30;;;;;;;10.23;2.92;;;;;;;-0.94;100.00;100782.50;5113114;28;20027;-61
2023/03/11 02:09:55;;;;;;;8.05;2.38;;;;;;;-0.95;100.00;100779.06;5112837;28;20038;-62
2023/03/11 02:12:21;;;;;;;8.23;2.40;;;;;;;-0.96;100.00;100774.75;5113193;28;20022;-61
2023/03/11 02:14:50;;;;;;;5.68;2.10;;;;;;;-0.99;100.00;100777.44;5112727;28;20140;-61
2023/03/11 02:17:15;;;;;;;6.68;2.47;;;;;;;-0.98;100.00;100778.31;5113052;27;20020;-62
2023/03/11 02:20:11;;;;;;;11.45;2.50;;;;;;;-0.98;100.00;100783.53;5113990;28;20027;-60
2023/03/11 02:22:39;;;;;;;7.00;2.42;;;;;;;-1.04;100.00;100781.94;5102824;27;20030;-59
2023/03/11 02:25:33;;;;;;;5.82;2.33;;;;;;;-1.00;100.00;100786.19;5113491;27;20055;-61
2023/03/11 02:28:00;;;;;;;5.32;2.13;;;;;;;-1.03;100.00;100785.38;5105989;28;20027;-61
2023/03/11 02:30:26;;;;;;;9.55;2.47;;;;;;;-1.04;100.00;100787.16;5113377;27;20077;-60
2023/03/11 02:32:53;;;;;;;5.75;2.47;;;;;;;-1.04;100.00;100786.31;5104981;28;20385;-60
2023/03/11 02:35:19;;;;;;;5.95;2.45;;;;;;;-1.05;100.00;100781.97;5104751;28;20034;-61
2023/03/11 02:37:50;;;;;;;5.90;2.35;;;;;;;-1.05;100.00;100782.84;5114068;28;20378;-62
2023/03/11 02:40:21;;;;;;;12.82;2.72;;;;;;;-1.07;100.00;100784.63;5095753;28;20024;-60
2023/03/11 02:42:49;;;;;;;11.57;2.40;;;;;;;-1.06;100.00;100783.75;5110062;28;20043;-61
2023/03/11 02:45:19;;;;;;;7.72;2.55;;;;;;;-1.08;100.00;100782.94;5129028;27;20038;-61
2023/03/11 02:47:45;;;;;;;6.78;2.33;;;;;;;-1.09;100.00;100781.22;5124506;27;20139;-60
2023/03/11 02:50:14;;;;;;;10.48;2.72;;;;;;;-1.11;100.00;100785.63;5129162;27;20513;-61
2023/03/11 02:52:40;;;;;;;6.22;2.60;;;;;;;-1.12;100.00;100783.91;5123732;28;20683;-61
2023/03/11 02:55:06;;;;;;;7.15;2.78;;;;;;;-1.14;100.00;100777.91;5125005;27;20102;-61
2023/03/11 02:57:32;;;;;;;7.30;2.63;;;;;;;-1.12;100.00;100783.91;5120308;27;20027;-61
2023/03/11 02:59:58;;;;;;;4.90;2.63;;;;;;;-1.13;100.00;100779.63;5118559;28;20032;-61
2023/03/11 03:02:24;;;;;;;6.38;2.42;;;;;;;-1.17;100.00;100785.78;5118526;27;20020;-62
2023/03/11 03:04:49;;;;;;;8.23;2.53;;;;;;;-1.19;100.00;100780.63;5118563;28;20073;-61
2023/03/11 03:07:14;;;;;;;6.95;2.83;;;;;;;-1.18;100.00;100786.72;5117815;28;20032;-61
2023/03/11 03:09:40;;;;;;;9.88;2.30;;;;;;;-1.21;100.00;100785.03;5120469;27;20374;-61
2023/03/11 03:12:05;;;;;;;8.63;2.58;;;;;;;-1.22;100.00;100788.53;5121384;27;20543;-61
2023/03/11 03:14:31;;;;;;;8.82;2.67;;;;;;;-1.27;100.00;100792.16;5120325;27;20103;-61
2023/03/11 03:16:57;;;;;;;7.75;2.22;;;;;;;-1.27;100.00;100798.22;5118754;27;20064;-61
2023/03/11 03:19:22;;;;;;;6.75;2.80;;;;;;;-1.29;100.00;100807.00;5110651;27;20385;-61
2023/03/11 03:21:48;;;;;;;6.05;2.40;;;;;;;-1.31;100.00;100813.09;5120106;27;20038;-62
2023/03/11 03:24:13;;;;;;;10.20;2.65;;;;;;;-1.34;100.00;100813.19;5120012;27;20080;-62
2023/03/11 03:26:39;;;;;;;6.38;2.60;;;;;;;-1.36;100.00;100822.81;5120051;27;20028;-62
2023/03/11 03:29:04;;;;;;;7.70;2.50;;;;;;;-1.37;100.00;100825.44;5112179;28;20055;-61
2023/03/11 03:31:29;;;;;;;10.15;2.50;;;;;;;-1.39;100.00;100824.63;5120293;27;20073;-62
2023/03/11 03:33:55;;;;;;;7.57;2.75;;;;;;;-1.39;100.00;100827.25;5120541;27;20033;-61
2023/03/11 03:36:20;;;;;;;10.50;2.42;;;;;;;-1.42;100.00;100829.94;5119672;27;20045;-61
2023/03/11 03:38:46;;;;;;;6.75;2.75;;;;;;;-1.42;100.00;100829.94;5101672;28;20023;-61
2023/03/11 03:41:14;;;;;;;5.50;2.63;;;;;;;-1.46;100.00;100838.75;5108822;28;20445;-61
2023/03/11 03:43:40;;;;;;;7.03;2.67;;;;;;;-1.45;100.00;100848.25;5098671;27;20111;-62
2023/03/11 03:46:05;;;;;;;4.38;2.47;;;;;;;-1.46;100.00;100847.41;5117729;27;20110;-61
2023/03/11 03:48:32;;;;;;;9.93;2.85;;;;;;;-1.50;100.00;100844.03;5092145;28;20073;-60
2023/03/11 03:51:05;;;;;;;7.75;2.40;;;;;;;-1.51;100.00;100850.13;5114177;27;20062;-61
2023/03/11 03:53:33;;;;;;;11.75;2.67;;;;;;;-1.56;100.00;100854.59;5106686;28;20024;-61
2023/03/11 03:56:17;;;;;;;9.90;2.88;;;;;;;-1.54;100.00;100852.81;5116891;27;20752;-61
2023/03/11 03:58:43;;;;;;;7.70;2.38;;;;;;;-1.59;100.00;100861.63;5118029;27;20489;-61
2023/03/11 04:01:10;;;;;;;6.65;2.20;;;;;;;-1.61;100.00;100853.88;5118002;28;20035;-61
2023/03/11 04:03:37;;;;;;;11.65;2.42;;;;;;;-1.60;100.00;100862.53;5118273;27;20378;-62
2023/03/11 04:06:06;;;;;;;9.30;2.80;;;;;;;-1.61;100.00;100863.44;5115402;28;20058;-62
2023/03/11 04:08:32;;;;;;;3.47;2.13;;;;;;;-1.62;100.00;100864.31;5115390;27;20027;-59
2023/03/11 04:10:57;;;;;;;5.90;2.30;;;;;;;-1.63;100.00;100857.38;5115019;28;20077;-61
2023/03/11 04:13:23;;;;;;;8.77;2.65;;;;;;;-1.63;100.00;100866.06;5115771;27;20106;-61
2023/03/11 04:15:48;;;;;;;8.77;2.67;;;;;;;-1.63;100.00;100867.81;5115613;27;20030;-61
2023/03/11 04:18:13;;;;;;;5.15;2.40;;;;;;;-1.65;100.00;100861.78;5115078;27;20034;-61
2023/03/11 04:20:39;;;;;;;8.45;2.30;;;;;;;-1.64;100.00;100861.75;5114477;27;20043;-62
2023/03/11 04:23:04;;;;;;;7.93;2.65;;;;;;;-1.64;100.00;100864.34;5115216;27;20020;-61
2023/03/11 04:25:29;;;;;;;6.65;2.55;;;;;;;-1.64;100.00;100860.91;5115040;27;20028;-61
2023/03/11 04:27:54;;;;;;;12.52;2.70;;;;;;;-1.63;100.00;100865.19;5115016;28;20118;-61
2023/03/11 04:30:20;;;;;;;4.40;2.03;;;;;;;-1.63;100.00;100867.81;5111263;27;20082;-61
2023/03/11 04:32:45;;;;;;;7.60;2.63;;;;;;;-1.63;100.00;100873.00;5114692;28;20081;-61
2023/03/11 04:35:10;;;;;;;9.07;2.63;;;;;;;-1.66;100.00;100871.34;5114977;27;20042;-61
2023/03/11 04:37:36;;;;;;;6.65;2.20;;;;;;;-1.69;100.00;100872.28;5114435;27;20028;-61
2023/03/11 04:40:01;;;;;;;6.38;2.15;;;;;;;-1.69;100.00;100874.88;5116369;27;20024;-61
2023/03/11 04:42:27;;;;;;;6.30;2.53;;;;;;;-1.68;100.00;100873.16;5115998;27;20036;-61
2023/03/11 04:44:52;;;;;;;6.63;2.58;;;;;;;-1.69;100.00;100879.25;5114490;28;20413;-61
2023/03/11 04:47:17;;;;;;;6.90;2.60;;;;;;;-1.70;100.00;100872.31;5113884;28;20034;-61
2023/03/11 04:49:43;;;;;;;4.97;2.65;;;;;;;-1.71;100.00;100879.28;5114035;28;20024;-61
2023/03/11 04:52:08;;;;;;;6.53;2.63;;;;;;;-1.73;100.00;100881.06;5113092;28;20477;-60
2023/03/11 04:54:34;;;;;;;10.27;3.10;;;;;;;-1.73;100.00;100882.84;5103526;27;20482;-61
2023/03/11 04:56:59;;;;;;;6.32;3.15;;;;;;;-1.76;100.00;100877.69;5113421;28;20023;-61
2023/03/11 04:59:24;;;;;;;5.22;3.10;;;;;;;-1.78;100.00;100869.94;5096596;28;20031;-61
2023/03/11 05:01:49;;;;;;;8.77;2.50;;;;;;;-1.80;100.00;100874.28;5106653;28;20107;-61
2023/03/11 05:04:15;;;;;;;6.70;2.80;;;;;;;-1.80;100.00;100879.50;5114727;27;20080;-61
2023/03/11 05:06:40;;;;;;;9.07;2.88;;;;;;;-1.80;100.00;100876.88;5114148;27;20390;-61
2023/03/11 05:09:05;;;;;;;6.50;2.60;;;;;;;-1.83;100.00;100882.19;5114748;27;20027;-63
2023/03/11 05:11:31;;;;;;;6.45;2.60;;;;;;;-1.86;100.00;100888.31;5113146;28;20394;-61
2023/03/11 05:13:56;;;;;;;14.43;3.28;;;;;;;-1.87;100.00;100885.75;5111250;28;20080;-61
2023/03/11 05:16:21;;;;;;;5.68;2.45;;;;;;;-1.89;100.00;100895.34;5103137;28;20027;-61
2023/03/11 05:18:47;;;;;;;7.55;2.42;;;;;;;-1.91;100.00;100899.75;5113953;27;20024;-60
2023/03/11 05:21:12;;;;;;;5.30;2.35;;;;;;;-1.92;100.00;100890.22;5104335;28;20031;-61
2023/03/11 05:23:38;;;;;;;6.72;2.38;;;;;;;-1.94;100.00;100900.66;5113619;28;20034;-61
2023/03/11 05:26:03;;;;;;;5.78;2.72;;;;;;;-1.97;100.00;100902.50;5111044;28;20032;-61
2023/03/11 05:28:28;;;;;;;5.20;2.25;;;;;;;-1.99;100.00;100899.94;5115082;27;20115;-61
2023/03/11 05:30:54;;;;;;;7.65;2.45;;;;;;;-2.03;100.00;100910.44;5114630;27;20028;-60
2023/03/11 05:33:19;;;;;;;8.10;2.85;;;;;;;-2.06;100.00;100908.78;5085069;28;20031;-60
2023/03/11 05:35:44;;;;;;;6.20;2.60;;;;;;;-2.11;100.00;100910.63;5110947;28;20024;-59
2023/03/11 05:38:10;;;;;;;7.45;2.65;;;;;;;-2.12;100.00;100920.16;5113104;28;20031;-60
2023/03/11 05:40:35;;;;;;;6.95;2.72;;;;;;;-2.13;100.00;100915.88;5112489;28;20036;-60
2023/03/11 05:43:00;;;;;;;8.25;2.65;;;;;;;-2.15;100.00;100925.47;5113653;27;20035;-61
2023/03/11 05:45:26;;;;;;;3.20;2.30;;;;;;;-2.17;100.00;100913.38;5112469;28;20115;-60
2023/03/11 05:47:51;;;;;;;6.95;2.70;;;;;;;-2.19;100.00;100920.34;5113014;28;20023;-60
2023/03/11 05:50:17;;;;;;;6.22;2.42;;;;;;;-2.22;100.00;100918.66;5111872;28;20059;-61
2023/03/11 05:52:42;;;;;;;10.15;2.70;;;;;;;-2.21;100.00;100922.13;5112380;28;20036;-60
2023/03/11 05:55:10;;;;;;;6.22;2.50;;;;;;;-2.24;100.00;100923.91;5113756;28;20569;-60
2023/03/11 05:57:35;;;;;;;5.75;2.78;;;;;;;-2.26;100.00;100928.28;5111596;28;20032;-61
2023/03/11 06:00:02;;;;;;;6.07;2.47;;;;;;;-2.26;100.00;100924.84;5098868;28;20039;-61
2023/03/11 06:02:27;;;;;;;8.65;2.33;;;;;;;-2.28;100.00;100932.69;5104934;27;20066;-60
2023/03/11 06:04:52;;;;;;;7.47;3.10;;;;;;;-2.30;100.00;100934.47;5114469;27;20525;-61
2023/03/11 06:07:18;;;;;;;6.93;2.80;;;;;;;-2.32;100.00;100938.81;5113370;27;20031;-60
2023/03/11 06:09:43;;;;;;;4.65;2.50;;;;;;;-2.32;100.00;100932.78;5112660;28;20478;-60
2023/03/11 06:12:08;;;;;;;18.92;3.47;;;;;;;-2.35;100.00;100946.69;5110680;27;20058;-60
2023/03/11 06:14:34;;;;;;;6.65;2.63;;;;;;;-2.35;100.00;100948.44;5110119;28;20035;-60
2023/03/11 06:16:59;;;;;;;7.10;2.70;;;;;;;-2.36;100.00;100947.59;5106976;27;20478;-59
2023/03/11 06:19:25;;;;;;;7.18;2.80;;;;;;;-2.38;100.00;100948.50;5111425;27;20032;-61
2023/03/11 06:21:51;;;;;;;5.18;3.25;;;;;;;-2.39;100.00;100952.00;5109910;28;20438;-60
2023/03/11 06:24:16;;;;;;;7.47;2.60;;;;;;;-2.42;100.00;100956.38;5110713;28;20051;-61
2023/03/11 06:26:42;;;;;;;8.00;2.50;;;;;;;-2.40;100.00;100955.50;5106071;28;20118;-61
2023/03/11 06:29:12;;;;;;;5.50;2.50;;;;;;;-2.43;100.00;100959.03;5111143;27;20043;-60
2023/03/11 06:31:38;;;;;;;11.75;3.10;;;;;;;-2.43;100.00;100962.47;5114674;27;20111;-60
2023/03/11 06:34:05;;;;;;;5.97;2.50;;;;;;;-2.44;100.00;100960.75;5113429;27;20023;-62
2023/03/11 06:36:30;;;;;;;4.78;2.78;;;;;;;-2.46;100.00;100959.94;5104359;28;20541;-60
2023/03/11 06:38:55;;;;;;;7.07;3.00;;;;;;;-2.47;100.00;100965.16;5101065;28;20028;-60
2023/03/11 06:41:20;;;;;;;5.60;2.75;;;;;;;-2.48;100.00;100973.84;5111271;28;20048;-60
2023/03/11 06:43:46;;;;;;;8.27;2.67;;;;;;;-2.50;100.00;100971.31;5112579;28;20424;-60
2023/03/11 06:46:16;;;;;;;6.60;2.60;;;;;;;-2.51;100.00;100985.19;5112770;28;20138;-60
2023/03/11 06:48:42;;;;;;;10.25;3.67;;;;;;;-2.49;100.00;100988.59;5111585;28;20019;-61
2023/03/11 06:51:09;;;;;;;7.65;2.45;;;;;;;-2.50;100.00;100986.03;5109296;28;20063;-60
2023/03/11 06:53:34;;;;;;;5.32;2.67;;;;;;;-2.51;100.00;100987.78;5111593;28;20565;-60
2023/03/11 06:56:04;;;;;;;9.80;3.15;;;;;;;-2.50;100.00;100994.72;5112806;28;20099;-59
2023/03/11 06:58:30;;;;;;;6.25;2.80;;;;;;;-2.48;100.00;100999.84;5106871;28;20047;-60
2023/03/11 07:01:00;;;;;;;6.63;2.42;;;;;;;-2.48;100.00;101013.75;5106300;28;20020;-65
2023/03/11 07:03:26;;;;;;;9.80;2.60;;;;;;;-2.47;100.00;101018.03;5105477;28;20062;-62
2023/03/11 07:05:51;;;;;;;6.10;2.78;;;;;;;-2.45;100.00;101021.47;5110054;28;20027;-61
2023/03/11 07:08:17;;;;;;;5.60;2.42;;;;;;;-2.44;100.00;101030.97;5108781;28;20044;-61
2023/03/11 07:10:42;;;;;;;4.88;3.05;;;;;;;-2.42;100.00;101031.78;5110880;28;20363;-61
2023/03/11 07:13:07;;;;;;;12.13;3.20;;;;;;;-2.39;100.00;101027.44;5108684;28;20482;-61
2023/03/11 07:15:33;;;;;;;7.22;2.50;;;;;;;-2.36;100.00;101025.63;5114046;28;20347;-61
2023/03/11 07:17:58;;;;;;;6.90;2.95;;;;;;;-2.32;100.00;101026.44;5109247;28;20036;-61
2023/03/11 07:20:23;;;;;;;7.47;3.15;;;;;;;-2.29;100.00;101024.63;5109948;28;20027;-61
2023/03/11 07:22:49;;;;;;;8.15;2.90;;;;;;;-2.26;100.00;101026.31;5109601;28;20050;-62
2023/03/11 07:25:14;;;;;;;9.25;2.85;;;;;;;-2.21;100.00;101032.28;5109312;28;20343;-61
2023/03/11 07:27:39;;;;;;;11.18;3.33;;;;;;;-2.16;100.00;101034.78;5109258;28;20046;-62
2023/03/11 07:30:05;;;;;;;4.47;3.45;;;;;;;-2.13;100.00;101043.38;5111593;28;20043;-61
2023/03/11 07:32:31;;;;;;;10.57;3.70;;;;;;;-2.08;100.00;101036.34;5109616;28;20082;-61
2023/03/11 07:34:56;;;;;;;8.93;2.72;;;;;;;-2.02;100.00;101040.53;5110676;28;20024;-63
2023/03/11 07:37:22;;;;;;;8.65;3.10;;;;;;;-1.96;100.00;101045.63;5089930;28;20051;-62
2023/03/11 07:39:47;;;;;;;10.75;3.55;;;;;;;-1.89;100.00;101051.56;5110778;28;20036;-62
2023/03/11 07:42:12;;;;;;;4.72;2.70;;;;;;;-1.81;100.00;101044.44;5107770;28;20573;-62
2023/03/11 07:44:38;;;;;;;9.13;3.13;;;;;;;-1.75;100.00;101048.63;5109114;28;20035;-62
2023/03/11 07:47:04;;;;;;;9.60;3.50;;;;;;;-1.64;100.00;101049.25;5114093;28;20362;-62
2023/03/11 07:49:30;;;;;;;6.47;2.92;;;;;;;-1.55;100.00;101042.97;5110105;27;20107;-62
2023/03/11 07:51:55;;;;;;;10.55;3.47;;;;;;;-1.44;100.00;101053.16;5113463;28;20038;-62
2023/03/11 07:54:21;;;;;;;13.35;3.90;;;;;;;-1.29;100.00;101058.00;5103990;28;20038;-62
2023/03/11 07:56:46;;;;;;;8.40;3.28;;;;;;;-1.22;100.00;101063.91;5111568;27;20073;-62
2023/03/11 07:59:11;;;;;;;6.05;3.92;;;;;;;-1.08;100.00;101067.06;5097956;28;20105;-63
2023/03/11 08:01:39;;;;;;;5.32;3.13;;;;;;;-0.93;100.00;101065.81;5109096;27;20340;-63
2023/03/11 08:04:08;;;;;;;8.60;3.35;;;;;;;-0.77;100.00;101067.16;5109618;27;20050;-62
2023/03/11 08:06:35;;;;;;;12.13;3.50;;;;;;;-0.62;100.00;101071.06;5108926;27;20082;-62
2023/03/11 08:09:04;;;;;;;7.85;3.58;;;;;;;-0.53;100.00;101064.78;5107434;28;20115;-62
2023/03/11 08:11:30;;;;;;;5.80;2.92;;;;;;;-0.39;100.00;101067.84;5107714;28;20047;-62
2023/03/11 08:13:56;;;;;;;8.15;3.08;;;;;;;-0.24;100.00;101070.94;5109463;27;20481;-62
2023/03/11 08:16:22;;;;;;;14.18;3.13;;;;;;;-0.06;100.00;101070.41;5113402;28;20375;-63
2023/03/11 08:18:49;;;;;;;7.63;3.78;;;;;;;0.13;100.00;101069.88;5115538;27;20104;-62
2023/03/11 08:21:26;;;;;;;9.27;4.13;;;;;;;0.34;100.00;101076.22;5114275;28;20058;-62
2023/03/11 08:23:51;;;;;;;8.45;3.45;;;;;;;0.55;100.00;101072.09;5114359;28;20137;-64
2023/03/11 08:26:19;;;;;;;8.25;3.55;;;;;;;0.81;100.00;101073.88;5105753;27;20054;-61
2023/03/11 08:28:45;;;;;;;7.50;3.53;;;;;;;1.12;100.00;101075.50;5111201;28;20439;-61
2023/03/11 08:31:19;;;;;;;6.80;2.60;;;;;;;1.31;100.00;101080.94;5113915;27;20032;-61
2023/03/11 08:33:48;;;;;;;7.28;2.58;;;;;;;1.52;98.42;101081.97;5114237;28;20051;-61
2023/03/11 08:36:14;;;;;;;6.30;2.60;;;;;;;1.78;96.77;101082.78;5113542;28;20030;-62
2023/03/11 08:38:39;;;;;;;7.30;3.20;;;;;;;2.07;98.67;101086.97;5104646;27;20409;-62
2023/03/11 08:41:04;;;;;;;9.40;3.10;;;;;;;2.32;96.50;101084.28;5105659;27;20059;-62
2023/03/11 08:43:30;;;;;;;4.90;2.30;;;;;;;2.53;92.49;101089.59;5107130;27;20063;-62
2023/03/11 08:45:59;;;;;;;6.50;2.25;;;;;;;2.77;88.25;101086.00;5106485;28;20458;-62
2023/03/11 08:48:24;;;;;;;3.65;2.03;;;;;;;2.97;89.09;101093.06;5114370;28;20040;-62
2023/03/11 08:50:50;;;;;;;8.27;2.40;;;;;;;3.13;87.21;101102.94;5110717;28;20626;-61
2023/03/11 08:53:15;;;;;;;5.47;1.90;;;;;;;3.16;85.97;101097.56;5084327;28;20040;-62
2023/03/11 08:55:40;;;;;;;7.78;2.20;;;;;;;3.22;83.86;101104.34;5112396;27;20030;-62
2023/03/11 08:58:06;;;;;;;8.48;2.47;;;;;;;3.32;81.20;101103.03;5114384;27;20051;-61
2023/03/11 09:00:31;;;;;;;8.68;2.15;;;;;;;3.42;81.33;101111.38;5113545;28;20019;-61
2023/03/11 09:02:57;;;;;;;7.75;2.80;;;;;;;3.64;81.96;101111.31;5116102;27;20070;-61
2023/03/11 09:05:22;;;;;;;7.95;2.20;;;;;;;3.85;81.90;101117.41;5115658;27;20529;-61
2023/03/11 09:07:47;;;;;;;7.32;1.63;;;;;;;4.03;75.88;101107.81;5110278;27;20047;-62
2023/03/11 09:10:14;;;;;;;4.07;1.42;;;;;;;4.18;70.83;101103.63;5112838;28;20043;-62
2023/03/11 09:12:40;;;;;;;4.57;1.42;;;;;;;4.33;70.89;101108.22;5108217;28;20052;-62
2023/03/11 09:15:07;;;;;;;5.07;1.75;;;;;;;4.53;71.88;101109.03;5111879;28;20031;-62
2023/03/11 09:17:32;;;;;;;3.10;1.77;;;;;;;4.70;76.76;101111.75;5110038;28;20024;-62
2023/03/11 09:19:57;;;;;;;6.32;1.65;;;;;;;4.88;73.27;101114.41;5105986;28;20051;-62
2023/03/11 09:22:22;;;;;;;4.95;1.83;;;;;;;5.08;71.27;101110.78;5107307;27;20023;-62
2023/03/11 09:24:48;;;;;;;4.25;1.30;;;;;;;5.21;66.20;101117.16;5107423;27;20043;-62
2023/03/11 09:27:14;;;;;;;5.97;1.85;;;;;;;5.41;71.77;101117.94;5112793;28;20119;-62
2023/03/11 09:29:40;;;;;;;4.35;1.35;;;;;;;5.59;66.29;101124.91;5112692;28;20047;-62
2023/03/11 09:32:05;;;;;;;4.57;1.40;;;;;;;5.77;64.71;101124.91;5109925;27;20027;-62
2023/03/11 09:34:31;;;;;;;6.57;1.48;;;;;;;5.97;68.14;101132.66;5109932;28;20096;-62
2023/03/11 09:36:56;;;;;;;2.38;1.40;;;;;;;6.07;67.73;101125.94;5110469;28;20024;-62
2023/03/11 09:39:21;;;;;;;3.13;1.52;;;;;;;6.16;62.95;101123.75;5109118;28;20092;-63
2023/03/11 09:41:54;;;;;;;7.95;1.55;;;;;;;6.20;61.26;101126.16;5109746;28;20540;-62
2023/03/11 09:44:40;;;;;;;3.85;1.60;;;;;;;6.34;64.98;101122.75;5106082;28;20500;-63
2023/03/11 09:47:25;;;;;;;11.18;1.90;;;;;;;6.58;68.67;101123.22;5105957;27;20574;-62
2023/03/11 09:50:21;;;;;;;4.93;1.60;;;;;;;6.71;63.70;101123.41;5110028;27;20032;-63
2023/03/11 09:53:09;;;;;;;6.47;1.67;;;;;;;6.74;58.17;101128.47;5099121;28;20092;-62
2023/03/11 09:55:44;;;;;;;4.43;1.63;;;;;;;6.80;59.63;101127.28;5111254;28;20028;-62
2023/03/11 09:58:14;;;;;;;5.20;1.42;;;;;;;6.83;57.45;101122.69;5111805;28;20106;-62
2023/03/11 10:00:40;;;;;;;5.30;1.58;;;;;;;6.95;58.61;101129.06;5112389;28;20054;-62
2023/03/11 10:03:16;;;;;;;2.17;1.10;;;;;;;6.99;57.73;101127.09;5111014;27;20106;-63
2023/03/11 10:05:42;;;;;;;6.65;1.55;;;;;;;6.98;56.58;101117.50;5108935;28;20118;-63
2023/03/11 10:08:21;;;;;;;5.72;1.30;;;;;;;6.91;58.13;101117.00;5108908;28;20026;-63
2023/03/11 10:11:06;;;;;;;4.97;1.40;;;;;;;6.86;56.09;101126.94;5109349;28;20077;-63
2023/03/11 10:13:43;;;;;;;2.50;1.15;;;;;;;6.93;59.92;101123.03;5091489;28;20043;-63
2023/03/11 10:16:26;;;;;;;4.40;1.30;;;;;;;6.96;60.53;101122.84;5106182;27;20044;-64
2023/03/11 10:19:10;;;;;;;2.90;1.17;;;;;;;6.87;58.93;101120.72;5112318;27;20027;-63
2023/03/11 10:22:00;;;;;;;6.55;1.23;;;;;;;6.85;64.84;101123.44;5110540;28;21284;-64
2023/03/11 10:24:58;;;;;;;7.38;1.83;;;;;;;6.83;63.61;101130.59;5110400;27;20381;-63
2023/03/11 10:27:48;;;;;;;3.83;1.13;;;;;;;6.87;65.22;101141.00;5108357;28;20032;-63
2023/03/11 10:30:41;;;;;;;5.32;1.45;;;;;;;6.88;64.96;101142.69;5109065;27;20027;-63
2023/03/11 10:33:28;;;;;;;3.13;1.05;;;;;;;6.89;66.12;101142.59;5111481;27;20410;-63
2023/03/11 10:35:55;;;;;;;5.30;1.40;;;;;;;6.85;63.74;101143.72;5102185;28;20030;-61
2023/03/11 10:38:21;;;;;;;5.63;1.55;;;;;;;6.93;62.47;101135.34;5109099;28;20046;-61
2023/03/11 10:40:52;;;;;;;3.90;1.50;;;;;;;7.00;62.16;101149.94;5108352;28;20107;-61
2023/03/11 10:43:25;;;;;;;5.07;1.08;;;;;;;7.05;62.11;101155.81;5109239;28;20289;-61
2023/03/11 10:45:52;;;;;;;3.33;1.30;;;;;;;7.14;64.05;101144.69;5106909;28;20035;-61
2023/03/11 10:48:19;;;;;;;5.28;1.20;;;;;;;7.17;60.47;101143.69;5101110;28;20028;-62
2023/03/11 10:51:03;;;;;;;3.22;1.52;;;;;;;7.16;57.27;101147.25;5115250;27;20074;-61
2023/03/11 10:53:29;;;;;;;7.45;2.00;;;;;;;7.19;57.98;101147.94;5112438;27;20066;-61
2023/03/11 10:55:57;;;;;;;2.85;1.10;;;;;;;7.26;58.99;101144.94;5115493;28;20027;-62
2023/03/11 10:58:26;;;;;;;3.38;1.10;;;;;;;7.19;55.97;101140.03;5104127;28;20047;-61
2023/03/11 11:01:14;;;;;;;3.60;1.40;;;;;;;7.31;63.18;101141.09;5110620;28;20026;-64
2023/03/11 11:03:45;;;;;;;4.53;1.17;;;;;;;7.21;58.22;101140.78;5106274;28;20378;-64
2023/03/11 11:06:29;;;;;;;4.47;1.42;;;;;;;7.31;62.20;101140.22;5112887;28;20079;-63
2023/03/11 11:09:03;;;;;;;5.40;1.30;;;;;;;7.26;58.48;101143.16;5108541;28;20115;-63
2023/03/11 11:11:28;;;;;;;2.05;1.40;;;;;;;7.21;56.87;101138.13;5106433;28;20036;-61
2023/03/11 11:13:59;;;;;;;5.05;1.38;;;;;;;7.29;59.72;101144.75;5108219;28;20050;-62
2023/03/11 11:16:25;;;;;;;5.32;1.65;;;;;;;7.27;58.78;101147.50;5093604;28;20546;-62
2023/03/11 11:19:02;;;;;;;6.20;1.83;;;;;;;7.28;57.95;101143.91;5114140;28;20176;-61
2023/03/11 11:21:30;;;;;;;3.53;1.42;;;;;;;7.33;59.19;101148.94;5111022;27;20057;-61
2023/03/11 11:24:29;;;;;;;4.43;1.30;;;;;;;7.37;58.67;101147.81;5114203;28;20039;-61